createdAt,value
2022-07-30T00:00:24.892Z,17.48
2022-07-30T00:03:30.813Z,17.44
2022-07-30T00:06:34.483Z,17.40
2022-07-30T00:09:38.213Z,17.42
2022-07-30T00:12:41.873Z,17.39
2022-07-30T00:15:46.040Z,17.33
2022-07-30T00:18:51.553Z,17.32
2022-07-30T00:21:55.851Z,17.22
2022-07-30T00:24:59.631Z,17.22
2022-07-30T00:28:03.418Z,17.20
2022-07-30T00:31:07.130Z,17.10
2022-07-30T00:34:13.123Z,17.08
2022-07-30T00:37:16.730Z,17.00
2022-07-30T00:40:20.655Z,17.00
2022-07-30T00:43:24.266Z,16.97
2022-07-30T00:46:27.859Z,16.91
2022-07-30T00:49:33.061Z,16.82
2022-07-30T00:52:38.352Z,16.77
2022-07-30T00:55:42.077Z,16.69
2022-07-30T00:58:45.787Z,16.73
2022-07-30T01:01:49.426Z,16.77
2022-07-30T01:04:54.515Z,16.73
2022-07-30T01:07:58.260Z,16.73
2022-07-30T01:11:02.556Z,16.74
2022-07-30T01:14:08.176Z,16.72
2022-07-30T01:17:12.111Z,16.70
2022-07-30T01:20:25.796Z,16.74
2022-07-30T01:23:39.279Z,16.75
2022-07-30T01:26:50.549Z,16.68
2022-07-30T01:29:57.671Z,16.62
2022-07-30T01:33:03.872Z,16.61
2022-07-30T01:36:12.044Z,16.61
2022-07-30T01:39:20.614Z,16.58
2022-07-30T01:42:28.054Z,16.58
2022-07-30T01:45:41.495Z,16.54
2022-07-30T01:48:50.371Z,16.48
2022-07-30T01:51:55.991Z,16.44
2022-07-30T01:55:02.149Z,16.44
2022-07-30T01:58:10.291Z,16.41
2022-07-30T02:01:14.232Z,16.39
2022-07-30T02:04:18.338Z,16.38
2022-07-30T02:07:34.272Z,16.35
2022-07-30T02:10:45.291Z,16.29
2022-07-30T02:13:56.103Z,16.26
2022-07-30T02:17:04.273Z,16.20
2022-07-30T02:20:11.682Z,16.15
2022-07-30T02:23:19.559Z,16.03
2022-07-30T02:26:27.017Z,16.02
2022-07-30T02:29:38.154Z,15.97
2022-07-30T02:32:46.012Z,15.88
2022-07-30T02:35:52.130Z,15.83
2022-07-30T02:38:59.208Z,15.78
2022-07-30T02:42:04.686Z,15.64
2022-07-30T02:45:13.273Z,15.54
2022-07-30T02:48:35.192Z,15.50
2022-07-30T02:51:40.228Z,15.44
2022-07-30T02:54:46.608Z,15.42
2022-07-30T02:57:53.605Z,15.40
2022-07-30T03:01:01.263Z,15.37
2022-07-30T03:04:08.999Z,15.30
2022-07-30T03:07:14.192Z,15.26
2022-07-30T03:10:19.141Z,15.27
2022-07-30T03:13:24.259Z,15.27
2022-07-30T03:16:33.185Z,15.23
2022-07-30T03:19:41.204Z,15.23
2022-07-30T03:22:49.494Z,15.21
2022-07-30T03:26:01.217Z,15.22
2022-07-30T03:29:05.283Z,15.19
2022-07-30T03:32:13.799Z,15.14
2022-07-30T03:35:21.893Z,15.08
2022-07-30T03:38:27.440Z,15.07
2022-07-30T03:41:34.137Z,14.99
2022-07-30T03:44:38.820Z,14.95
2022-07-30T03:47:45.666Z,14.96
2022-07-30T03:50:50.783Z,14.90
2022-07-30T03:53:54.520Z,14.85
2022-07-30T03:56:58.649Z,14.79
2022-07-30T04:00:02.988Z,14.80
2022-07-30T04:03:09.745Z,14.82
2022-07-30T04:06:13.375Z,14.78
2022-07-30T04:09:16.910Z,14.83
2022-07-30T04:12:20.572Z,14.88
2022-07-30T04:16:04.910Z,14.88
2022-07-30T04:18:54.762Z,14.87
2022-07-30T04:22:02.102Z,14.91
2022-07-30T04:25:08.047Z,14.93
2022-07-30T04:28:12.916Z,14.95
2022-07-30T04:31:17.942Z,14.96
2022-07-30T04:34:23.135Z,14.92
2022-07-30T04:37:28.915Z,14.89
2022-07-30T04:40:33.189Z,14.83
2022-07-30T04:43:36.828Z,14.89
2022-07-30T04:46:40.559Z,14.97
2022-07-30T04:49:47.074Z,15.00
2022-07-30T04:52:51.079Z,15.06
2022-07-30T04:55:56.666Z,15.17
2022-07-30T04:59:00.838Z,15.17
2022-07-30T05:02:08.628Z,15.16
2022-07-30T05:05:16.111Z,15.22
2022-07-30T05:08:20.076Z,15.31
2022-07-30T05:11:23.781Z,15.37
2022-07-30T05:14:28.694Z,15.26
2022-07-30T05:17:32.493Z,15.36
2022-07-30T05:20:37.742Z,15.41
2022-07-30T05:23:41.382Z,15.52
2022-07-30T05:26:54.141Z,15.50
2022-07-30T05:29:57.784Z,15.65
2022-07-30T05:33:03.785Z,15.84
2022-07-30T05:36:21.162Z,16.33
2022-07-30T05:39:24.824Z,16.60
2022-07-30T05:42:28.464Z,16.64
2022-07-30T05:45:32.397Z,16.83
2022-07-30T05:48:36.811Z,17.13
2022-07-30T05:51:41.812Z,17.24
2022-07-30T05:54:45.631Z,17.63
2022-07-30T05:57:49.268Z,17.72
2022-07-30T06:00:54.251Z,17.95
2022-07-30T06:03:57.919Z,17.99
2022-07-30T06:07:03.646Z,18.27
2022-07-30T06:10:08.675Z,18.05
2022-07-30T06:13:12.279Z,17.81
2022-07-30T06:16:16.072Z,17.92
2022-07-30T06:19:19.898Z,17.63
2022-07-30T06:22:26.243Z,17.48
2022-07-30T06:25:29.972Z,17.28
2022-07-30T06:28:38.497Z,17.36
2022-07-30T06:31:42.731Z,17.35
2022-07-30T06:34:46.409Z,17.20
2022-07-30T06:38:06.829Z,17.18
2022-07-30T06:41:12.779Z,17.10
2022-07-30T06:44:16.456Z,17.10
2022-07-30T06:47:26.195Z,17.13
2022-07-30T06:50:30.110Z,17.23
2022-07-30T06:53:39.973Z,17.30
2022-07-30T06:56:46.470Z,17.47
2022-07-30T06:59:56.126Z,17.49
2022-07-30T07:03:00.984Z,17.62
2022-07-30T07:06:05.391Z,18.04
2022-07-30T07:09:10.370Z,18.63
2022-07-30T07:12:14.170Z,18.97
2022-07-30T07:15:17.891Z,19.10
2022-07-30T07:18:21.633Z,19.35
2022-07-30T07:21:25.335Z,19.25
2022-07-30T07:24:30.322Z,19.18
2022-07-30T07:27:34.067Z,19.48
2022-07-30T07:30:37.879Z,19.69
2022-07-30T07:33:42.822Z,19.81
2022-07-30T07:36:46.424Z,19.93
2022-07-30T07:39:51.376Z,19.85
2022-07-30T07:42:55.044Z,19.40
2022-07-30T07:45:59.896Z,19.40
2022-07-30T07:49:04.087Z,19.46
2022-07-30T07:52:08.107Z,19.52
2022-07-30T07:55:13.328Z,19.60
2022-07-30T07:58:25.542Z,19.52
2022-07-30T08:01:30.191Z,19.51
2022-07-30T08:04:33.835Z,19.49
2022-07-30T08:07:37.575Z,19.39
2022-07-30T08:10:42.679Z,19.42
2022-07-30T08:13:49.256Z,19.26
2022-07-30T08:16:56.429Z,19.38
2022-07-30T08:20:05.292Z,19.59
2022-07-30T08:23:09.044Z,19.70
2022-07-30T08:26:14.073Z,19.83
2022-07-30T08:29:18.003Z,19.76
2022-07-30T08:32:23.946Z,19.68
2022-07-30T08:35:32.246Z,19.87
2022-07-30T08:38:36.083Z,20.12
2022-07-30T08:41:46.372Z,20.10
2022-07-30T08:44:54.510Z,19.99
2022-07-30T08:48:01.501Z,19.80
2022-07-30T08:51:09.760Z,19.75
2022-07-30T08:54:25.875Z,20.04
2022-07-30T08:57:33.146Z,20.27
2022-07-30T09:00:36.735Z,20.39
2022-07-30T09:03:43.446Z,20.54
2022-07-30T09:06:48.197Z,20.42
2022-07-30T09:09:52.085Z,20.88
2022-07-30T09:12:57.181Z,20.93
2022-07-30T09:16:01.322Z,20.83
2022-07-30T09:19:16.416Z,21.13
2022-07-30T09:22:20.140Z,20.93
2022-07-30T09:25:39.765Z,21.45
2022-07-30T09:28:44.774Z,21.58
2022-07-30T09:31:56.872Z,21.74
2022-07-30T09:35:14.880Z,22.07
2022-07-30T09:38:18.503Z,21.94
2022-07-30T09:41:39.161Z,21.40
2022-07-30T09:44:45.359Z,21.73
2022-07-30T09:47:50.491Z,21.88
2022-07-30T09:50:57.326Z,22.53
2022-07-30T09:54:01.398Z,22.26
2022-07-30T09:57:25.787Z,22.27
2022-07-30T10:00:36.231Z,22.32
2022-07-30T10:03:44.439Z,22.59
2022-07-30T10:06:50.446Z,22.27
2022-07-30T10:09:54.819Z,22.53
2022-07-30T10:13:04.589Z,22.31
2022-07-30T10:16:11.559Z,22.89
2022-07-30T10:19:19.316Z,23.66
2022-07-30T10:22:27.292Z,23.31
2022-07-30T10:25:31.941Z,22.86
2022-07-30T10:28:41.424Z,22.92
2022-07-30T10:31:54.239Z,22.80
2022-07-30T10:34:59.423Z,22.75
2022-07-30T10:38:04.223Z,22.63
2022-07-30T10:41:22.087Z,23.07
2022-07-30T10:45:17.618Z,23.53
2022-07-30T10:48:23.838Z,23.31
2022-07-30T10:51:47.199Z,23.29
2022-07-30T10:54:55.506Z,23.44
2022-07-30T10:58:06.122Z,23.34
2022-07-30T11:01:18.605Z,23.59
2022-07-30T11:04:26.929Z,24.28
2022-07-30T11:07:33.507Z,23.88
2022-07-30T11:10:41.096Z,24.10
2022-07-30T11:13:56.295Z,23.57
2022-07-30T11:17:02.186Z,23.45
2022-07-30T11:20:14.125Z,23.67
2022-07-30T11:23:39.345Z,23.77
2022-07-30T11:26:52.794Z,23.99
2022-07-30T11:29:57.341Z,23.88
2022-07-30T11:33:32.126Z,24.08
2022-07-30T11:36:38.694Z,24.21
2022-07-30T11:40:11.580Z,24.63
2022-07-30T11:43:35.468Z,24.38
2022-07-30T11:46:50.229Z,24.46
2022-07-30T11:49:57.340Z,24.24
2022-07-30T11:53:05.326Z,24.49
2022-07-30T11:56:13.961Z,24.85
2022-07-30T11:59:18.727Z,24.76
2022-07-30T12:02:28.662Z,24.45
2022-07-30T12:05:32.337Z,24.18
2022-07-30T12:08:45.656Z,24.29
2022-07-30T12:11:49.311Z,24.61
2022-07-30T12:14:53.186Z,24.85
2022-07-30T12:18:10.975Z,25.24
2022-07-30T12:21:21.347Z,24.92
2022-07-30T12:24:28.036Z,24.72
2022-07-30T12:27:31.757Z,24.48
2022-07-30T12:30:35.671Z,24.76
2022-07-30T12:33:42.239Z,24.47
2022-07-30T12:36:46.063Z,24.63
2022-07-30T12:40:15.162Z,24.49
2022-07-30T12:43:19.171Z,24.58
2022-07-30T12:46:25.437Z,24.27
2022-07-30T12:49:36.805Z,24.35
2022-07-30T12:52:52.511Z,24.24
2022-07-30T12:56:13.138Z,24.11
2022-07-30T12:59:23.752Z,24.38
2022-07-30T13:02:34.498Z,24.52
2022-07-30T13:05:46.699Z,24.45
2022-07-30T13:08:54.467Z,24.63
2022-07-30T13:11:59.583Z,24.82
2022-07-30T13:15:04.959Z,24.88
2022-07-30T13:18:08.612Z,24.93
2022-07-30T13:21:12.906Z,25.02
2022-07-30T13:24:18.000Z,24.83
2022-07-30T13:27:23.331Z,24.94
2022-07-30T13:30:26.954Z,25.38
2022-07-30T13:33:30.688Z,25.17
2022-07-30T13:36:34.589Z,25.25
2022-07-30T13:39:38.135Z,25.18
2022-07-30T13:42:43.198Z,25.24
2022-07-30T13:45:47.136Z,24.89
2022-07-30T13:48:50.788Z,24.90
2022-07-30T13:51:54.614Z,24.78
2022-07-30T13:54:58.486Z,24.93
2022-07-30T13:58:06.733Z,24.87
2022-07-30T14:01:17.314Z,25.09
2022-07-30T14:04:21.558Z,25.34
2022-07-30T14:07:25.511Z,25.61
2022-07-30T14:10:29.220Z,25.47
2022-07-30T14:13:34.225Z,24.98
2022-07-30T14:16:45.965Z,24.75
2022-07-30T14:19:50.550Z,24.46
2022-07-30T14:22:54.729Z,24.24
2022-07-30T14:25:58.472Z,24.48
2022-07-30T14:29:03.550Z,24.24
2022-07-30T14:32:07.954Z,24.27
2022-07-30T14:35:11.968Z,24.58
2022-07-30T14:38:16.011Z,24.61
2022-07-30T14:41:19.727Z,24.30
2022-07-30T14:44:24.934Z,24.27
2022-07-30T14:47:28.636Z,24.35
2022-07-30T14:50:32.276Z,24.28
2022-07-30T14:53:36.268Z,24.20
2022-07-30T14:56:40.497Z,24.29
2022-07-30T14:59:45.551Z,24.33
2022-07-30T15:02:49.129Z,24.32
2022-07-30T15:05:52.733Z,25.13
2022-07-30T15:08:56.400Z,25.56
2022-07-30T15:12:08.859Z,25.18
2022-07-30T15:15:14.791Z,25.17
2022-07-30T15:18:18.696Z,25.10
2022-07-30T15:21:22.519Z,24.98
2022-07-30T15:24:27.001Z,24.97
2022-07-30T15:27:33.912Z,25.23
2022-07-30T15:30:39.658Z,25.00
2022-07-30T15:33:44.968Z,25.12
2022-07-30T15:36:48.931Z,25.32
2022-07-30T15:39:52.670Z,25.57
2022-07-30T15:42:56.524Z,25.24
2022-07-30T15:46:01.700Z,25.29
2022-07-30T15:49:05.374Z,25.25
2022-07-30T15:52:09.681Z,24.84
2022-07-30T15:55:13.422Z,24.93
2022-07-30T15:58:18.763Z,24.71
2022-07-30T16:01:24.063Z,24.56
2022-07-30T16:04:31.173Z,24.35
2022-07-30T16:07:36.031Z,24.30
2022-07-30T16:10:40.583Z,24.13
2022-07-30T16:13:44.362Z,24.24
2022-07-30T16:16:49.436Z,24.04
2022-07-30T16:19:53.135Z,24.09
2022-07-30T16:22:56.837Z,24.10
2022-07-30T16:26:00.479Z,24.12
2022-07-30T16:29:04.962Z,24.05
2022-07-30T16:32:09.988Z,23.96
2022-07-30T16:35:13.704Z,23.96
2022-07-30T16:38:17.347Z,23.81
2022-07-30T16:41:20.987Z,23.77
2022-07-30T16:44:27.040Z,23.75
2022-07-30T16:47:34.359Z,23.58
2022-07-30T16:50:40.617Z,23.40
2022-07-30T16:53:44.374Z,23.28
2022-07-30T16:56:50.025Z,22.28
2022-07-30T16:59:53.646Z,21.05
2022-07-30T17:02:58.644Z,20.38
2022-07-30T17:06:02.378Z,19.97
2022-07-30T17:09:05.959Z,19.54
2022-07-30T17:12:12.445Z,19.44
2022-07-30T17:15:20.568Z,19.32
2022-07-30T17:18:37.400Z,19.26
2022-07-30T17:21:41.199Z,19.07
2022-07-30T17:24:44.866Z,18.95
2022-07-30T17:27:48.526Z,18.72
2022-07-30T17:30:52.278Z,18.40
2022-07-30T17:33:57.252Z,18.13
2022-07-30T17:37:00.924Z,17.91
2022-07-30T17:40:27.023Z,17.84
2022-07-30T17:43:28.585Z,17.87
2022-07-30T17:46:34.194Z,17.82
2022-07-30T17:49:39.235Z,17.92
2022-07-30T17:52:42.883Z,18.03
2022-07-30T17:55:57.599Z,18.21
2022-07-30T17:59:01.860Z,18.22
2022-07-30T18:02:06.361Z,18.09
2022-07-30T18:05:14.553Z,18.19
2022-07-30T18:08:18.434Z,18.16
2022-07-30T18:11:22.458Z,18.25
2022-07-30T18:14:26.556Z,18.32
2022-07-30T18:17:31.114Z,18.33
2022-07-30T18:20:36.538Z,18.35
2022-07-30T18:23:52.176Z,18.27
2022-07-30T18:26:55.822Z,18.23
2022-07-30T18:29:59.462Z,18.25
2022-07-30T18:33:03.069Z,18.19
2022-07-30T18:36:08.313Z,18.30
2022-07-30T18:39:12.403Z,18.31
2022-07-30T18:42:16.098Z,18.42
2022-07-30T18:45:19.759Z,18.45
2022-07-30T18:48:23.567Z,18.50
2022-07-30T18:51:28.615Z,18.51
2022-07-30T18:54:32.350Z,18.50
2022-07-30T18:57:36.134Z,18.53
2022-07-30T19:00:43.260Z,18.52
2022-07-30T19:03:47.538Z,18.61
2022-07-30T19:06:52.707Z,18.61
2022-07-30T19:09:58.402Z,18.58
2022-07-30T19:13:03.441Z,18.56
2022-07-30T19:16:07.452Z,18.59
2022-07-30T19:19:12.863Z,18.62
2022-07-30T19:22:18.878Z,18.60
2022-07-30T19:25:35.720Z,18.53
2022-07-30T19:28:39.335Z,18.52
2022-07-30T19:31:43.043Z,18.51
2022-07-30T19:34:46.812Z,18.46
2022-07-30T19:37:51.822Z,18.39
2022-07-30T19:40:55.459Z,18.33
2022-07-30T19:44:00.352Z,18.30
2022-07-30T19:47:04.156Z,18.24
2022-07-30T19:50:11.377Z,18.19
2022-07-30T19:53:16.625Z,18.16
2022-07-30T19:56:20.547Z,18.09
2022-07-30T19:59:45.801Z,18.04
2022-07-30T20:02:51.702Z,17.95
2022-07-30T20:05:58.789Z,17.89
2022-07-30T20:09:05.418Z,17.79
2022-07-30T20:12:17.832Z,17.67
2022-07-30T20:15:21.475Z,17.61
2022-07-30T20:18:29.078Z,17.42
2022-07-30T20:21:57.423Z,17.28
2022-07-30T20:24:59.519Z,17.13
2022-07-30T20:28:03.315Z,16.96
2022-07-30T20:31:07.057Z,16.86
2022-07-30T20:34:16.328Z,16.68
2022-07-30T20:37:22.498Z,16.60
2022-07-30T20:40:27.762Z,16.58
2022-07-30T20:43:31.553Z,16.59
2022-07-30T20:46:36.459Z,16.55
2022-07-30T20:49:41.615Z,16.56
2022-07-30T20:52:47.010Z,16.57
2022-07-30T20:55:53.344Z,16.63
2022-07-30T20:58:57.804Z,16.59
2022-07-30T21:02:03.753Z,16.51
2022-07-30T21:05:08.620Z,16.47
2022-07-30T21:08:17.528Z,16.46
2022-07-30T21:11:22.594Z,16.46
2022-07-30T21:14:26.689Z,16.45
2022-07-30T21:17:30.347Z,16.43
2022-07-30T21:20:34.097Z,16.39
2022-07-30T21:23:37.863Z,16.39
2022-07-30T21:26:43.719Z,16.33
2022-07-30T21:29:47.924Z,16.34
2022-07-30T21:32:51.673Z,16.29
2022-07-30T21:35:55.282Z,16.31
2022-07-30T21:38:59.104Z,16.33
2022-07-30T21:42:04.559Z,16.32
2022-07-30T21:45:09.998Z,16.35
2022-07-30T21:48:14.492Z,16.37
2022-07-30T21:51:18.404Z,16.29
2022-07-30T21:54:28.830Z,16.38
2022-07-30T21:57:34.560Z,16.36
2022-07-30T22:01:00.906Z,16.37
2022-07-30T22:04:21.305Z,16.35
2022-07-30T22:07:24.868Z,16.35
2022-07-30T22:10:30.316Z,16.31
2022-07-30T22:13:35.299Z,16.29
2022-07-30T22:16:55.495Z,16.36
2022-07-30T22:19:59.147Z,16.28
2022-07-30T22:23:05.978Z,16.24
2022-07-30T22:26:09.676Z,16.16
2022-07-30T22:29:14.780Z,16.13
2022-07-30T22:32:18.372Z,16.10
2022-07-30T22:35:32.470Z,16.06
2022-07-30T22:38:37.607Z,16.06
2022-07-30T22:41:41.336Z,16.03
2022-07-30T22:44:47.580Z,16.04
2022-07-30T22:47:55.607Z,16.01
2022-07-30T22:50:59.791Z,16.01
2022-07-30T22:54:12.677Z,16.00
2022-07-30T22:57:16.835Z,16.01
2022-07-30T23:00:28.739Z,16.03
2022-07-30T23:03:32.360Z,15.95
2022-07-30T23:06:36.035Z,15.98
2022-07-30T23:12:33.794Z,15.99
2022-07-30T23:13:03.268Z,16.03
2022-07-30T23:16:08.322Z,16.05
2022-07-30T23:19:16.208Z,16.08
2022-07-30T23:22:26.103Z,16.07
2022-07-30T23:25:38.412Z,16.07
2022-07-30T23:28:42.988Z,16.10
2022-07-30T23:31:47.963Z,16.08
2022-07-30T23:34:51.712Z,16.04
2022-07-30T23:37:55.325Z,16.02
2022-07-30T23:41:01.353Z,15.98
2022-07-30T23:44:05.276Z,15.95
2022-07-30T23:47:10.370Z,15.88
2022-07-30T23:50:14.021Z,15.85
2022-07-30T23:53:17.798Z,15.87
2022-07-30T23:56:21.827Z,15.84
2022-07-30T23:59:36.894Z,15.79
